createdAt,value
2018-12-01T05:08:44.735Z,22.18
2018-12-01T05:11:16.202Z,22.05
2018-12-01T05:13:48.147Z,21.83
2018-12-01T05:16:19.997Z,21.94
2018-12-01T05:18:52.131Z,22.22
2018-12-01T05:21:24.039Z,22.03
2018-12-01T05:23:55.832Z,21.92
2018-12-01T05:26:27.967Z,22.17
2018-12-01T05:28:59.891Z,22.29
2018-12-01T05:31:31.510Z,22.34
2018-12-01T05:34:03.883Z,22.53
2018-12-01T05:36:35.430Z,22.44
2018-12-01T05:39:09.344Z,22.44
2018-12-01T05:41:41.185Z,22.43
2018-12-01T05:44:12.959Z,22.30
2018-12-01T05:46:45.144Z,22.32
2018-12-01T05:49:17.410Z,22.41
2018-12-01T05:51:49.592Z,22.48
2018-12-01T05:54:21.850Z,22.64
2018-12-01T05:56:53.578Z,22.69
2018-12-01T05:59:25.290Z,22.58
2018-12-01T06:01:57.322Z,22.53
2018-12-01T06:04:29.104Z,22.71
2018-12-01T06:07:00.741Z,22.79
2018-12-01T06:09:32.541Z,22.85
2018-12-01T06:12:04.346Z,22.72
2018-12-01T06:14:36.216Z,22.72
2018-12-01T06:17:08.494Z,22.87
2018-12-01T06:19:40.212Z,22.88
2018-12-01T06:22:12.397Z,22.89
2018-12-01T06:24:44.009Z,23.00
2018-12-01T06:27:15.649Z,23.14
2018-12-01T06:29:47.655Z,23.21
2018-12-01T06:32:19.103Z,23.21
2018-12-01T06:34:50.795Z,23.08
2018-12-01T06:37:22.205Z,23.28
2018-12-01T06:39:54.728Z,23.24
2018-12-01T06:42:26.333Z,23.40
2018-12-01T06:44:57.851Z,23.35
2018-12-01T06:47:29.234Z,23.34
2018-12-01T06:50:01.000Z,23.31
2018-12-01T06:52:33.071Z,23.40
2018-12-01T06:55:04.603Z,23.48
2018-12-01T06:57:36.033Z,23.60
2018-12-01T07:00:10.431Z,23.53
2018-12-01T07:02:41.840Z,23.42
2018-12-01T07:05:16.841Z,23.43
2018-12-01T07:07:50.263Z,23.78
2018-12-01T07:10:23.173Z,23.72
2018-12-01T07:12:56.056Z,23.54
2018-12-01T07:15:36.956Z,23.76
2018-12-01T07:18:17.937Z,23.53
2018-12-01T07:20:49.536Z,23.54
2018-12-01T07:23:21.763Z,23.74
2018-12-01T07:25:53.719Z,23.72
2018-12-01T07:28:25.216Z,23.73
2018-12-01T07:30:57.096Z,23.81
2018-12-01T07:33:28.614Z,23.86
2018-12-01T07:36:00.629Z,23.79
2018-12-01T07:38:32.022Z,23.82
2018-12-01T07:41:03.779Z,23.76
2018-12-01T07:43:35.465Z,23.97
2018-12-01T07:46:07.532Z,23.86
2018-12-01T07:48:39.157Z,23.61
2018-12-01T07:51:10.659Z,23.70
2018-12-01T07:53:43.096Z,23.65
2018-12-01T07:56:14.752Z,23.89
2018-12-01T07:58:46.423Z,23.90
2018-12-01T08:01:17.941Z,23.79
2018-12-01T08:03:50.402Z,23.80
2018-12-01T08:06:22.137Z,23.87
2018-12-01T08:08:54.650Z,23.83
2018-12-01T08:11:26.288Z,24.19
2018-12-01T08:13:58.722Z,24.05
2018-12-01T08:16:30.307Z,23.85
2018-12-01T08:19:01.762Z,23.97
2018-12-01T08:21:35.490Z,23.97
2018-12-01T08:24:07.776Z,23.98
2018-12-01T08:26:41.452Z,23.95
2018-12-01T08:29:13.038Z,24.01
2018-12-01T08:31:44.579Z,24.08
2018-12-01T08:34:16.024Z,24.06
2018-12-01T08:36:47.727Z,23.97
2018-12-01T08:39:19.379Z,24.02
2018-12-01T08:41:50.945Z,24.16
2018-12-01T08:44:22.529Z,24.16
2018-12-01T08:46:54.053Z,24.13
2018-12-01T08:49:25.675Z,24.13
2018-12-01T08:51:57.228Z,24.11
2018-12-01T08:54:29.049Z,24.15
2018-12-01T08:57:01.517Z,24.19
2018-12-01T08:59:32.927Z,24.16
2018-12-01T09:02:06.764Z,24.21
2018-12-01T09:04:38.038Z,24.11
2018-12-01T09:07:09.486Z,24.18
2018-12-01T09:09:40.972Z,24.13
2018-12-01T09:12:12.527Z,24.12
2018-12-01T09:14:46.076Z,24.12
2018-12-01T09:17:18.143Z,24.07
2018-12-01T09:19:49.460Z,24.06
2018-12-01T09:22:20.879Z,24.12
2018-12-01T09:24:53.042Z,24.23
2018-12-01T09:27:24.950Z,24.20
2018-12-01T09:29:56.470Z,24.10
2018-12-01T09:32:28.959Z,24.20
2018-12-01T09:35:00.369Z,24.27
2018-12-01T09:37:31.958Z,24.28
2018-12-01T09:40:03.563Z,24.25
2018-12-01T09:42:35.178Z,24.14
2018-12-01T09:45:09.241Z,24.21
2018-12-01T09:47:41.091Z,24.21
2018-12-01T09:50:15.393Z,24.23
2018-12-01T09:52:48.224Z,24.16
2018-12-01T09:55:24.125Z,24.19
2018-12-01T09:57:55.693Z,24.19
2018-12-01T10:00:31.316Z,24.33
2018-12-01T10:03:04.263Z,24.36
2018-12-01T10:05:36.673Z,24.29
2018-12-01T10:08:09.473Z,24.22
2018-12-01T10:10:40.941Z,24.31
2018-12-01T10:13:13.342Z,24.24
2018-12-01T10:15:44.885Z,24.30
2018-12-01T10:18:16.995Z,24.27
2018-12-01T10:20:49.257Z,24.27
2018-12-01T10:23:20.971Z,24.32
2018-12-01T10:25:53.042Z,24.39
2018-12-01T10:28:24.749Z,24.20
2018-12-01T10:30:56.270Z,24.32
2018-12-01T10:33:28.100Z,24.24
2018-12-01T10:35:59.647Z,24.33
2018-12-01T10:38:31.141Z,24.29
2018-12-01T10:41:03.062Z,24.27
2018-12-01T10:43:35.077Z,24.30
2018-12-01T10:46:06.774Z,24.27
2018-12-01T10:48:38.746Z,24.22
2018-12-01T10:51:10.374Z,24.24
2018-12-01T10:53:42.183Z,24.22
2018-12-01T10:56:14.510Z,24.24
2018-12-01T10:58:46.330Z,24.24
2018-12-01T11:01:22.718Z,24.16
2018-12-01T11:03:54.548Z,24.23
2018-12-01T11:06:26.403Z,24.18
2018-12-01T11:08:58.399Z,24.20
2018-12-01T11:11:30.148Z,24.25
2018-12-01T11:14:01.824Z,24.23
2018-12-01T11:16:33.937Z,24.25
2018-12-01T11:19:07.229Z,24.26
2018-12-01T11:21:39.921Z,24.24
2018-12-01T11:24:12.198Z,24.25
2018-12-01T11:26:45.034Z,24.23
2018-12-01T11:29:17.419Z,24.21
2018-12-01T11:31:49.818Z,24.21
2018-12-01T11:34:22.185Z,24.16
2018-12-01T11:36:54.365Z,24.13
2018-12-01T11:39:26.757Z,24.11
2018-12-01T11:42:00.165Z,24.08
2018-12-01T11:44:32.229Z,23.98
2018-12-01T11:47:05.466Z,23.99
2018-12-01T11:49:37.648Z,23.95
2018-12-01T11:52:10.099Z,23.95
2018-12-01T11:54:42.057Z,23.91
2018-12-01T11:57:14.225Z,23.89
2018-12-01T11:59:46.156Z,23.91
2018-12-01T12:02:18.905Z,23.87
2018-12-01T12:04:51.141Z,23.84
2018-12-01T12:07:32.814Z,23.82
2018-12-01T12:10:04.928Z,23.80
2018-12-01T12:12:37.120Z,23.54
2018-12-01T12:15:13.161Z,23.55
2018-12-01T12:17:49.087Z,23.47
2018-12-01T12:20:23.770Z,23.49
2018-12-01T12:22:58.251Z,23.47
2018-12-01T12:25:33.018Z,23.44
2018-12-01T12:28:08.655Z,23.42
2018-12-01T12:30:42.286Z,23.40
2018-12-01T12:33:14.261Z,23.38
2018-12-01T12:35:46.549Z,23.36
2018-12-01T12:38:18.666Z,23.31
2018-12-01T12:40:50.877Z,23.38
2018-12-01T12:43:23.263Z,23.33
2018-12-01T12:45:55.365Z,23.26
2018-12-01T12:48:27.245Z,23.29
2018-12-01T12:50:58.838Z,23.22
2018-12-01T12:53:30.379Z,23.21
2018-12-01T12:56:02.047Z,23.19
2018-12-01T12:58:34.394Z,23.17
2018-12-01T13:01:05.954Z,23.22
2018-12-01T13:03:37.728Z,23.05
2018-12-01T13:06:09.495Z,23.03
2018-12-01T13:08:41.151Z,23.01
2018-12-01T13:11:12.843Z,22.92
2018-12-01T13:13:44.344Z,23.02
2018-12-01T13:16:16.207Z,22.99
2018-12-01T13:18:47.683Z,23.04
2018-12-01T13:21:20.414Z,23.03
2018-12-01T13:23:52.132Z,23.04
2018-12-01T13:26:24.262Z,23.15
2018-12-01T13:28:56.249Z,23.16
2018-12-01T13:31:28.073Z,23.21
2018-12-01T13:34:02.846Z,23.19
2018-12-01T13:36:36.704Z,23.17
2018-12-01T13:39:10.941Z,23.18
2018-12-01T13:41:42.661Z,23.12
2018-12-01T13:44:14.393Z,23.06
2018-12-01T13:46:45.931Z,22.82
2018-12-01T13:49:17.369Z,22.78
2018-12-01T13:51:48.985Z,22.46
2018-12-01T13:54:20.445Z,22.56
2018-12-01T13:56:52.023Z,22.56
2018-12-01T13:59:24.178Z,22.57
2018-12-01T14:01:56.099Z,22.64
2018-12-01T14:04:27.487Z,22.61
2018-12-01T14:06:59.037Z,22.59
2018-12-01T14:09:30.660Z,22.64
2018-12-01T14:12:02.273Z,22.57
2018-12-01T14:14:34.086Z,22.40
2018-12-01T14:17:05.637Z,22.37
2018-12-01T14:19:37.075Z,22.36
2018-12-01T14:22:09.149Z,22.24
2018-12-01T14:24:40.826Z,22.21
2018-12-01T14:27:13.364Z,22.23
2018-12-01T14:29:45.269Z,22.18
2018-12-01T14:32:16.745Z,22.11
2018-12-01T14:34:48.147Z,22.07
2018-12-01T14:37:19.791Z,22.04
2018-12-01T14:39:51.331Z,22.04
2018-12-01T14:42:23.160Z,22.61
2018-12-01T14:44:54.606Z,22.26
2018-12-01T14:47:26.154Z,22.17
2018-12-01T14:49:57.739Z,22.10
2018-12-01T14:52:29.803Z,22.00
2018-12-01T14:55:01.663Z,21.99
2018-12-01T14:57:33.485Z,22.05
2018-12-01T15:00:05.606Z,22.01
2018-12-01T15:02:37.529Z,21.94
2018-12-01T15:05:09.443Z,21.81
2018-12-01T15:07:40.902Z,21.76
2018-12-01T15:10:15.519Z,21.78
2018-12-01T15:12:46.999Z,21.78
2018-12-01T15:15:20.614Z,21.80
2018-12-01T15:17:52.379Z,21.78
2018-12-01T15:20:24.941Z,21.72
2018-12-01T15:22:57.969Z,21.68
2018-12-01T15:25:31.310Z,21.67
2018-12-01T15:28:03.009Z,21.71
2018-12-01T15:30:35.287Z,21.75
2018-12-01T15:33:10.747Z,21.55
2018-12-01T15:35:43.641Z,21.44
2018-12-01T15:38:15.248Z,21.32
2018-12-01T15:40:52.979Z,21.34
2018-12-01T15:43:24.673Z,21.56
2018-12-01T15:45:56.403Z,21.61
2018-12-01T15:48:28.158Z,21.65
2018-12-01T15:50:59.530Z,21.58
2018-12-01T15:53:31.210Z,21.50
2018-12-01T15:56:04.126Z,21.57
2018-12-01T15:58:35.707Z,21.52
2018-12-01T16:01:07.752Z,21.60
2018-12-01T16:03:40.290Z,21.30
2018-12-01T16:06:12.481Z,21.26
2018-12-01T16:08:44.639Z,21.30
2018-12-01T16:11:16.654Z,21.23
2018-12-01T16:13:48.624Z,21.35
2018-12-01T16:16:20.646Z,21.35
2018-12-01T16:18:52.804Z,21.24
2018-12-01T16:21:24.657Z,21.25
2018-12-01T16:23:56.749Z,21.21
2018-12-01T16:26:28.291Z,21.24
2018-12-01T16:29:01.061Z,21.28
2018-12-01T16:31:33.555Z,21.25
2018-12-01T16:34:05.796Z,21.15
2018-12-01T16:36:37.925Z,21.12
2018-12-01T16:39:12.528Z,21.16
2018-12-01T16:41:44.720Z,20.99
2018-12-01T16:44:16.800Z,20.83
2018-12-01T16:46:48.651Z,20.94
2018-12-01T16:49:20.614Z,21.02
2018-12-01T16:51:52.736Z,21.12
2018-12-01T16:54:24.757Z,21.06
2018-12-01T16:56:57.085Z,20.68
2018-12-01T16:59:29.216Z,20.70
2018-12-01T17:02:01.530Z,20.46
2018-12-01T17:04:33.351Z,20.63
2018-12-01T17:07:05.854Z,20.85
2018-12-01T17:09:39.180Z,20.99
2018-12-01T17:12:10.932Z,20.90
2018-12-01T17:14:43.263Z,20.68
2018-12-01T17:17:15.038Z,20.66
2018-12-01T17:19:47.117Z,20.63
2018-12-01T17:22:18.906Z,20.70
2018-12-01T17:24:50.956Z,20.59
2018-12-01T17:27:22.756Z,20.71
2018-12-01T17:29:54.916Z,20.82
2018-12-01T17:32:28.098Z,20.59
2018-12-01T17:35:00.316Z,20.57
2018-12-01T17:37:31.887Z,20.44
2018-12-01T17:40:03.586Z,20.56
2018-12-01T17:42:35.325Z,20.72
2018-12-01T17:45:08.173Z,20.75
2018-12-01T17:47:39.958Z,20.27
2018-12-01T17:50:14.180Z,20.69
2018-12-01T17:52:50.489Z,20.39
2018-12-01T17:55:22.302Z,20.76
2018-12-01T17:57:54.642Z,20.41
2018-12-01T18:00:28.606Z,20.54
2018-12-01T18:03:02.643Z,20.55
2018-12-01T18:05:37.437Z,20.58
2018-12-01T18:08:12.100Z,20.38
2018-12-01T18:10:44.692Z,20.47
2018-12-01T18:13:16.851Z,20.47
2018-12-01T18:15:48.803Z,20.27
2018-12-01T18:18:20.374Z,20.37
2018-12-01T18:20:52.516Z,20.43
2018-12-01T18:23:24.628Z,20.44
2018-12-01T18:25:57.573Z,20.27
2018-12-01T18:28:33.745Z,20.04
2018-12-01T18:31:08.819Z,20.00
2018-12-01T18:33:43.539Z,20.06
2018-12-01T18:36:17.238Z,20.08
2018-12-01T18:38:50.690Z,19.96
2018-12-01T18:41:22.862Z,19.90
2018-12-01T18:43:54.655Z,19.98
2018-12-01T18:46:26.814Z,20.01
2018-12-01T18:48:58.671Z,19.81
2018-12-01T18:51:30.441Z,19.94
2018-12-01T18:54:02.025Z,19.99
2018-12-01T18:56:34.248Z,19.96
2018-12-01T18:59:06.137Z,19.87
2018-12-01T19:01:37.768Z,19.83
2018-12-01T19:04:10.398Z,19.83
2018-12-01T19:06:43.003Z,19.72
2018-12-01T19:09:15.751Z,19.59
2018-12-01T19:11:47.739Z,19.71
2018-12-01T19:14:21.048Z,19.77
2018-12-01T19:16:52.973Z,19.76
2018-12-01T19:19:25.413Z,19.73
2018-12-01T19:21:58.880Z,19.60
2018-12-01T19:24:30.735Z,19.60
2018-12-01T19:27:02.724Z,19.52
2018-12-01T19:29:34.577Z,19.39
2018-12-01T19:32:06.665Z,19.40
2018-12-01T19:34:39.101Z,19.62
2018-12-01T19:37:11.182Z,19.66
2018-12-01T19:39:43.414Z,19.64
2018-12-01T19:42:15.218Z,19.66
2018-12-01T19:44:46.871Z,19.47
2018-12-01T19:47:18.697Z,19.37
2018-12-01T19:49:50.852Z,19.46
2018-12-01T19:52:22.767Z,19.43
2018-12-01T19:54:55.072Z,19.36
2018-12-01T19:57:27.068Z,19.46
2018-12-01T19:59:58.902Z,19.54
2018-12-01T20:02:32.061Z,19.56
2018-12-01T20:05:04.417Z,19.43
2018-12-01T20:07:36.516Z,19.32
2018-12-01T20:10:12.422Z,19.33
2018-12-01T20:12:44.944Z,19.48
2018-12-01T20:15:20.897Z,19.26
2018-12-01T20:17:53.052Z,19.30
2018-12-01T20:20:24.590Z,19.42
2018-12-01T20:22:56.662Z,19.41
2018-12-01T20:25:28.789Z,19.13
2018-12-01T20:28:01.753Z,19.01
2018-12-01T20:30:33.851Z,19.11
2018-12-01T20:33:08.397Z,19.12
2018-12-01T20:35:48.222Z,19.13
2018-12-01T20:38:26.160Z,19.15
2018-12-01T20:40:57.947Z,19.08
2018-12-01T20:43:29.945Z,19.04
2018-12-01T20:46:01.565Z,19.06
2018-12-01T20:48:56.878Z,19.01
2018-12-01T20:51:28.617Z,19.08
2018-12-01T20:54:07.380Z,19.04
2018-12-01T20:56:42.302Z,18.94
2018-12-01T20:59:17.384Z,18.96
2018-12-01T21:01:49.622Z,19.01
2018-12-01T21:04:21.581Z,19.08
2018-12-01T21:06:54.135Z,19.06
2018-12-01T21:09:26.048Z,19.06
2018-12-01T21:11:57.788Z,18.95
2018-12-01T21:14:29.485Z,18.91
2018-12-01T21:17:01.854Z,18.85
2018-12-01T21:19:34.372Z,18.86
2018-12-01T21:22:08.462Z,18.90
2018-12-01T21:24:40.480Z,18.85
2018-12-01T21:27:13.409Z,18.89
2018-12-01T21:29:45.111Z,18.85
2018-12-01T21:32:17.333Z,19.07
2018-12-01T21:34:49.493Z,18.94
2018-12-01T21:37:22.074Z,18.85
2018-12-01T21:39:53.972Z,18.76
2018-12-01T21:42:26.205Z,18.93
2018-12-01T21:44:58.181Z,18.92
2018-12-01T21:47:29.782Z,18.85
2018-12-01T21:50:02.054Z,18.64
2018-12-01T21:52:34.254Z,18.62
2018-12-01T21:55:06.298Z,18.73
2018-12-01T21:57:37.978Z,18.69
2018-12-01T22:00:32.778Z,18.60
2018-12-01T22:03:08.698Z,18.56
2018-12-01T22:05:44.727Z,18.70
2018-12-01T22:08:17.384Z,18.80
2018-12-01T22:10:52.019Z,18.41
2018-12-01T22:13:23.888Z,18.48
2018-12-01T22:15:56.166Z,18.44
2018-12-01T22:18:28.145Z,18.31
2018-12-01T22:20:59.921Z,18.42
2018-12-01T22:23:32.732Z,18.49
2018-12-01T22:26:05.097Z,18.34
2018-12-01T22:28:37.287Z,18.47
2018-12-01T22:31:09.006Z,18.54
2018-12-01T22:33:41.030Z,18.43
2018-12-01T22:36:13.241Z,18.29
2018-12-01T22:38:45.824Z,18.33
2018-12-01T22:41:17.712Z,18.39
2018-12-01T22:43:49.875Z,18.29
2018-12-01T22:46:21.599Z,18.30
2018-12-01T22:48:53.603Z,18.29
2018-12-01T22:51:25.618Z,18.33
2018-12-01T22:53:57.383Z,18.37
2018-12-01T22:56:29.566Z,18.24
2018-12-01T22:59:01.305Z,18.29
2018-12-01T23:01:33.541Z,18.29
2018-12-01T23:04:05.047Z,18.22
2018-12-01T23:06:36.860Z,18.13
2018-12-01T23:09:10.542Z,18.20
2018-12-01T23:11:42.317Z,18.28
2018-12-01T23:14:14.375Z,18.16
2018-12-01T23:16:46.035Z,18.11
2018-12-01T23:19:17.816Z,18.00
2018-12-01T23:21:49.486Z,18.02
2018-12-01T23:24:21.793Z,18.17
2018-12-01T23:26:53.389Z,18.26
2018-12-01T23:29:25.321Z,18.15
2018-12-01T23:31:57.486Z,18.09
2018-12-01T23:34:29.683Z,18.18
2018-12-01T23:37:01.601Z,18.27
2018-12-01T23:39:33.734Z,18.24
2018-12-01T23:42:05.449Z,18.14
2018-12-01T23:44:37.260Z,18.01
2018-12-01T23:47:08.931Z,17.98
2018-12-01T23:49:40.765Z,18.10
2018-12-01T23:52:12.701Z,18.14
2018-12-01T23:54:44.315Z,18.12
2018-12-01T23:57:16.073Z,18.19
2018-12-01T23:59:47.856Z,18.17
